sensor_id;sensor_type;location;lat;lon;timestamp;P1;durP1;ratioP1;P2;durP2;ratioP2
74974;SDS011;68459;50.836;19.138;2023-06-26T00:01:25;9.25;;;4.63;;
74974;SDS011;68459;50.836;19.138;2023-06-26T00:04:31;7.30;;;4.38;;
74974;SDS011;68459;50.836;19.138;2023-06-26T00:07:35;7.47;;;4.50;;
74974;SDS011;68459;50.836;19.138;2023-06-26T00:10:39;8.13;;;4.87;;
74974;SDS011;68459;50.836;19.138;2023-06-26T00:13:44;8.43;;;5.07;;
74974;SDS011;68459;50.836;19.138;2023-06-26T00:16:48;12.93;;;5.20;;
74974;SDS011;68459;50.836;19.138;2023-06-26T00:19:52;9.47;;;5.60;;
74974;SDS011;68459;50.836;19.138;2023-06-26T00:22:56;11.30;;;5.88;;
74974;SDS011;68459;50.836;19.138;2023-06-26T00:26:00;10.32;;;5.90;;
74974;SDS011;68459;50.836;19.138;2023-06-26T00:29:05;11.80;;;5.93;;
74974;SDS011;68459;50.836;19.138;2023-06-26T00:32:09;8.68;;;5.32;;
74974;SDS011;68459;50.836;19.138;2023-06-26T00:35:13;10.52;;;5.97;;
74974;SDS011;68459;50.836;19.138;2023-06-26T00:38:19;10.73;;;5.47;;
74974;SDS011;68459;50.836;19.138;2023-06-26T00:41:22;9.80;;;5.70;;
74974;SDS011;68459;50.836;19.138;2023-06-26T00:44:28;11.40;;;6.05;;
74974;SDS011;68459;50.836;19.138;2023-06-26T00:47:31;9.85;;;6.03;;
74974;SDS011;68459;50.836;19.138;2023-06-26T00:50:36;9.98;;;6.10;;
74974;SDS011;68459;50.836;19.138;2023-06-26T00:53:40;10.80;;;6.40;;
74974;SDS011;68459;50.836;19.138;2023-06-26T00:56:46;14.48;;;6.95;;
74974;SDS011;68459;50.836;19.138;2023-06-26T00:59:51;18.60;;;7.63;;
74974;SDS011;68459;50.836;19.138;2023-06-26T01:02:56;12.87;;;7.00;;
74974;SDS011;68459;50.836;19.138;2023-06-26T01:06:02;11.88;;;6.72;;
74974;SDS011;68459;50.836;19.138;2023-06-26T01:09:06;12.25;;;6.80;;
74974;SDS011;68459;50.836;19.138;2023-06-26T01:12:10;10.77;;;6.20;;
74974;SDS011;68459;50.836;19.138;2023-06-26T01:15:16;12.18;;;6.28;;
74974;SDS011;68459;50.836;19.138;2023-06-26T01:18:20;12.10;;;6.43;;
74974;SDS011;68459;50.836;19.138;2023-06-26T01:21:25;12.13;;;6.40;;
74974;SDS011;68459;50.836;19.138;2023-06-26T01:24:35;12.38;;;6.75;;
74974;SDS011;68459;50.836;19.138;2023-06-26T01:27:43;10.13;;;5.95;;
74974;SDS011;68459;50.836;19.138;2023-06-26T01:30:49;13.52;;;7.13;;
74974;SDS011;68459;50.836;19.138;2023-06-26T01:33:54;13.63;;;6.63;;
74974;SDS011;68459;50.836;19.138;2023-06-26T01:37:00;15.88;;;7.47;;
74974;SDS011;68459;50.836;19.138;2023-06-26T01:40:04;12.52;;;6.90;;
74974;SDS011;68459;50.836;19.138;2023-06-26T01:43:11;17.43;;;7.10;;
74974;SDS011;68459;50.836;19.138;2023-06-26T01:46:24;12.68;;;7.22;;
74974;SDS011;68459;50.836;19.138;2023-06-26T01:49:39;11.95;;;6.18;;
74974;SDS011;68459;50.836;19.138;2023-06-26T01:52:53;13.80;;;6.45;;
74974;SDS011;68459;50.836;19.138;2023-06-26T01:56:05;13.30;;;6.43;;
74974;SDS011;68459;50.836;19.138;2023-06-26T01:59:16;13.07;;;6.88;;
74974;SDS011;68459;50.836;19.138;2023-06-26T02:02:22;12.20;;;6.65;;
74974;SDS011;68459;50.836;19.138;2023-06-26T02:05:27;13.87;;;7.00;;
74974;SDS011;68459;50.836;19.138;2023-06-26T02:08:34;14.85;;;7.65;;
74974;SDS011;68459;50.836;19.138;2023-06-26T02:11:37;13.50;;;7.13;;
74974;SDS011;68459;50.836;19.138;2023-06-26T02:14:42;13.17;;;7.00;;
74974;SDS011;68459;50.836;19.138;2023-06-26T02:17:47;12.00;;;6.07;;
74974;SDS011;68459;50.836;19.138;2023-06-26T02:20:50;13.80;;;7.15;;
74974;SDS011;68459;50.836;19.138;2023-06-26T02:23:56;13.55;;;7.13;;
74974;SDS011;68459;50.836;19.138;2023-06-26T02:27:00;17.20;;;7.45;;
74974;SDS011;68459;50.836;19.138;2023-06-26T02:30:06;15.07;;;6.72;;
74974;SDS011;68459;50.836;19.138;2023-06-26T02:33:11;13.35;;;6.40;;
74974;SDS011;68459;50.836;19.138;2023-06-26T02:36:16;14.33;;;6.47;;
74974;SDS011;68459;50.836;19.138;2023-06-26T02:39:19;12.70;;;6.65;;
74974;SDS011;68459;50.836;19.138;2023-06-26T02:42:23;13.75;;;6.85;;
74974;SDS011;68459;50.836;19.138;2023-06-26T02:45:28;12.30;;;6.13;;
74974;SDS011;68459;50.836;19.138;2023-06-26T02:48:32;11.13;;;6.63;;
74974;SDS011;68459;50.836;19.138;2023-06-26T02:51:36;15.23;;;6.88;;
74974;SDS011;68459;50.836;19.138;2023-06-26T02:54:47;14.15;;;6.22;;
74974;SDS011;68459;50.836;19.138;2023-06-26T02:57:51;12.07;;;5.90;;
74974;SDS011;68459;50.836;19.138;2023-06-26T03:00:58;12.73;;;5.95;;
74974;SDS011;68459;50.836;19.138;2023-06-26T03:04:02;11.23;;;5.97;;
74974;SDS011;68459;50.836;19.138;2023-06-26T03:07:07;13.10;;;6.20;;
74974;SDS011;68459;50.836;19.138;2023-06-26T03:10:12;12.70;;;5.88;;
74974;SDS011;68459;50.836;19.138;2023-06-26T03:13:18;11.18;;;6.10;;
74974;SDS011;68459;50.836;19.138;2023-06-26T03:16:23;11.60;;;5.90;;
74974;SDS011;68459;50.836;19.138;2023-06-26T03:19:27;10.10;;;5.38;;
74974;SDS011;68459;50.836;19.138;2023-06-26T03:22:49;11.82;;;5.80;;
74974;SDS011;68459;50.836;19.138;2023-06-26T03:25:54;11.20;;;6.10;;
74974;SDS011;68459;50.836;19.138;2023-06-26T03:29:10;12.80;;;5.78;;
74974;SDS011;68459;50.836;19.138;2023-06-26T03:32:15;10.82;;;5.68;;
74974;SDS011;68459;50.836;19.138;2023-06-26T03:35:19;8.13;;;5.30;;
74974;SDS011;68459;50.836;19.138;2023-06-26T03:38:23;11.63;;;5.33;;
74974;SDS011;68459;50.836;19.138;2023-06-26T03:41:30;10.18;;;5.60;;
74974;SDS011;68459;50.836;19.138;2023-06-26T03:44:34;11.43;;;5.70;;
74974;SDS011;68459;50.836;19.138;2023-06-26T03:47:41;13.60;;;6.07;;
74974;SDS011;68459;50.836;19.138;2023-06-26T03:50:45;11.63;;;5.57;;
74974;SDS011;68459;50.836;19.138;2023-06-26T03:53:50;10.77;;;5.55;;
74974;SDS011;68459;50.836;19.138;2023-06-26T03:56:55;11.25;;;7.47;;
74974;SDS011;68459;50.836;19.138;2023-06-26T03:59:58;11.93;;;6.80;;
74974;SDS011;68459;50.836;19.138;2023-06-26T04:03:04;14.52;;;5.97;;
74974;SDS011;68459;50.836;19.138;2023-06-26T04:06:08;8.75;;;5.20;;
74974;SDS011;68459;50.836;19.138;2023-06-26T04:09:13;11.20;;;5.63;;
74974;SDS011;68459;50.836;19.138;2023-06-26T04:12:17;11.40;;;5.88;;
74974;SDS011;68459;50.836;19.138;2023-06-26T04:15:22;10.48;;;5.53;;
74974;SDS011;68459;50.836;19.138;2023-06-26T04:18:27;12.83;;;6.00;;
74974;SDS011;68459;50.836;19.138;2023-06-26T04:21:31;10.88;;;6.00;;
74974;SDS011;68459;50.836;19.138;2023-06-26T04:24:34;11.57;;;6.30;;
74974;SDS011;68459;50.836;19.138;2023-06-26T04:27:38;10.13;;;5.80;;
74974;SDS011;68459;50.836;19.138;2023-06-26T04:30:42;12.25;;;6.15;;
74974;SDS011;68459;50.836;19.138;2023-06-26T04:33:47;16.70;;;6.78;;
74974;SDS011;68459;50.836;19.138;2023-06-26T04:36:53;10.80;;;6.00;;
74974;SDS011;68459;50.836;19.138;2023-06-26T04:39:57;11.80;;;6.50;;
74974;SDS011;68459;50.836;19.138;2023-06-26T04:43:01;12.45;;;6.18;;
74974;SDS011;68459;50.836;19.138;2023-06-26T04:46:05;12.77;;;6.72;;
74974;SDS011;68459;50.836;19.138;2023-06-26T04:49:10;13.67;;;6.77;;
74974;SDS011;68459;50.836;19.138;2023-06-26T04:52:14;10.85;;;6.32;;
74974;SDS011;68459;50.836;19.138;2023-06-26T04:55:18;12.45;;;6.72;;
74974;SDS011;68459;50.836;19.138;2023-06-26T04:58:23;19.00;;;6.97;;
74974;SDS011;68459;50.836;19.138;2023-06-26T05:01:27;12.45;;;6.55;;
74974;SDS011;68459;50.836;19.138;2023-06-26T05:04:35;14.25;;;6.28;;
74974;SDS011;68459;50.836;19.138;2023-06-26T05:07:40;12.15;;;6.20;;
74974;SDS011;68459;50.836;19.138;2023-06-26T05:10:45;11.27;;;6.30;;
74974;SDS011;68459;50.836;19.138;2023-06-26T05:13:49;12.55;;;6.72;;
74974;SDS011;68459;50.836;19.138;2023-06-26T05:16:53;12.82;;;6.80;;
74974;SDS011;68459;50.836;19.138;2023-06-26T05:19:58;10.88;;;6.47;;
74974;SDS011;68459;50.836;19.138;2023-06-26T05:23:03;12.18;;;6.68;;
74974;SDS011;68459;50.836;19.138;2023-06-26T05:26:08;12.70;;;6.22;;
74974;SDS011;68459;50.836;19.138;2023-06-26T05:29:13;13.43;;;6.10;;
74974;SDS011;68459;50.836;19.138;2023-06-26T05:32:17;11.37;;;6.47;;
74974;SDS011;68459;50.836;19.138;2023-06-26T05:35:23;10.85;;;6.05;;
74974;SDS011;68459;50.836;19.138;2023-06-26T05:38:30;14.80;;;7.03;;
74974;SDS011;68459;50.836;19.138;2023-06-26T05:41:35;13.40;;;6.00;;
74974;SDS011;68459;50.836;19.138;2023-06-26T05:44:39;12.73;;;5.90;;
74974;SDS011;68459;50.836;19.138;2023-06-26T05:47:43;10.32;;;6.22;;
74974;SDS011;68459;50.836;19.138;2023-06-26T05:50:50;10.20;;;6.03;;
74974;SDS011;68459;50.836;19.138;2023-06-26T05:53:54;8.95;;;5.65;;
74974;SDS011;68459;50.836;19.138;2023-06-26T05:56:59;12.53;;;5.70;;
74974;SDS011;68459;50.836;19.138;2023-06-26T06:00:04;9.93;;;5.97;;
74974;SDS011;68459;50.836;19.138;2023-06-26T06:03:16;8.23;;;4.57;;
74974;SDS011;68459;50.836;19.138;2023-06-26T06:06:21;8.27;;;4.60;;
74974;SDS011;68459;50.836;19.138;2023-06-26T06:09:25;7.15;;;3.80;;
74974;SDS011;68459;50.836;19.138;2023-06-26T06:12:29;6.20;;;3.65;;
74974;SDS011;68459;50.836;19.138;2023-06-26T06:15:32;6.20;;;3.58;;
74974;SDS011;68459;50.836;19.138;2023-06-26T06:18:36;8.35;;;4.20;;
74974;SDS011;68459;50.836;19.138;2023-06-26T06:21:41;7.75;;;3.78;;
74974;SDS011;68459;50.836;19.138;2023-06-26T06:24:45;6.30;;;3.50;;
74974;SDS011;68459;50.836;19.138;2023-06-26T06:27:52;7.03;;;3.80;;
74974;SDS011;68459;50.836;19.138;2023-06-26T06:30:56;5.63;;;3.33;;
74974;SDS011;68459;50.836;19.138;2023-06-26T06:34:00;7.10;;;3.63;;
74974;SDS011;68459;50.836;19.138;2023-06-26T06:37:05;6.53;;;3.83;;
74974;SDS011;68459;50.836;19.138;2023-06-26T06:40:10;6.53;;;3.28;;
74974;SDS011;68459;50.836;19.138;2023-06-26T06:43:15;7.43;;;4.18;;
74974;SDS011;68459;50.836;19.138;2023-06-26T06:46:19;8.38;;;4.50;;
74974;SDS011;68459;50.836;19.138;2023-06-26T06:49:23;5.93;;;3.60;;
74974;SDS011;68459;50.836;19.138;2023-06-26T06:52:28;5.13;;;3.67;;
74974;SDS011;68459;50.836;19.138;2023-06-26T06:55:32;5.78;;;3.88;;
74974;SDS011;68459;50.836;19.138;2023-06-26T06:58:36;7.30;;;3.80;;
74974;SDS011;68459;50.836;19.138;2023-06-26T07:01:40;6.15;;;3.72;;
74974;SDS011;68459;50.836;19.138;2023-06-26T07:04:44;7.43;;;3.50;;
74974;SDS011;68459;50.836;19.138;2023-06-26T07:07:49;5.13;;;3.40;;
74974;SDS011;68459;50.836;19.138;2023-06-26T07:10:53;6.22;;;3.70;;
74974;SDS011;68459;50.836;19.138;2023-06-26T07:13:58;5.90;;;3.25;;
74974;SDS011;68459;50.836;19.138;2023-06-26T07:17:02;5.90;;;3.35;;
74974;SDS011;68459;50.836;19.138;2023-06-26T07:20:07;6.10;;;3.50;;
74974;SDS011;68459;50.836;19.138;2023-06-26T07:23:18;7.93;;;3.45;;
74974;SDS011;68459;50.836;19.138;2023-06-26T07:26:22;5.78;;;3.53;;
74974;SDS011;68459;50.836;19.138;2023-06-26T07:29:41;10.93;;;6.30;;
74974;SDS011;68459;50.836;19.138;2023-06-26T07:32:45;6.40;;;3.20;;
74974;SDS011;68459;50.836;19.138;2023-06-26T07:35:49;8.90;;;5.57;;
74974;SDS011;68459;50.836;19.138;2023-06-26T07:38:54;4.88;;;3.00;;
74974;SDS011;68459;50.836;19.138;2023-06-26T07:41:58;4.85;;;2.80;;
74974;SDS011;68459;50.836;19.138;2023-06-26T07:45:02;4.68;;;2.95;;
74974;SDS011;68459;50.836;19.138;2023-06-26T07:48:11;4.90;;;3.00;;
74974;SDS011;68459;50.836;19.138;2023-06-26T07:51:15;6.40;;;2.70;;
74974;SDS011;68459;50.836;19.138;2023-06-26T07:54:20;5.97;;;3.08;;
74974;SDS011;68459;50.836;19.138;2023-06-26T07:57:24;5.15;;;3.05;;
74974;SDS011;68459;50.836;19.138;2023-06-26T08:00:28;6.63;;;2.88;;
74974;SDS011;68459;50.836;19.138;2023-06-26T08:03:32;4.43;;;2.80;;
74974;SDS011;68459;50.836;19.138;2023-06-26T08:06:37;4.38;;;2.85;;
74974;SDS011;68459;50.836;19.138;2023-06-26T08:09:43;6.53;;;3.28;;
74974;SDS011;68459;50.836;19.138;2023-06-26T08:12:47;4.53;;;3.00;;
74974;SDS011;68459;50.836;19.138;2023-06-26T08:15:52;9.05;;;4.65;;
74974;SDS011;68459;50.836;19.138;2023-06-26T08:18:56;5.03;;;2.93;;
74974;SDS011;68459;50.836;19.138;2023-06-26T08:22:00;5.10;;;3.10;;
74974;SDS011;68459;50.836;19.138;2023-06-26T08:25:06;6.97;;;3.30;;
74974;SDS011;68459;50.836;19.138;2023-06-26T08:28:10;5.00;;;3.45;;
74974;SDS011;68459;50.836;19.138;2023-06-26T08:31:14;5.60;;;3.03;;
74974;SDS011;68459;50.836;19.138;2023-06-26T08:34:19;4.73;;;3.10;;
74974;SDS011;68459;50.836;19.138;2023-06-26T08:37:22;7.55;;;2.78;;
74974;SDS011;68459;50.836;19.138;2023-06-26T08:40:28;4.40;;;2.80;;
74974;SDS011;68459;50.836;19.138;2023-06-26T08:43:32;4.18;;;2.83;;
74974;SDS011;68459;50.836;19.138;2023-06-26T08:46:36;5.50;;;2.70;;
74974;SDS011;68459;50.836;19.138;2023-06-26T08:49:43;4.47;;;2.70;;
74974;SDS011;68459;50.836;19.138;2023-06-26T08:52:56;5.90;;;2.80;;
74974;SDS011;68459;50.836;19.138;2023-06-26T08:56:10;5.32;;;3.30;;
74974;SDS011;68459;50.836;19.138;2023-06-26T08:59:19;5.68;;;3.88;;
74974;SDS011;68459;50.836;19.138;2023-06-26T09:02:24;5.20;;;2.72;;
74974;SDS011;68459;50.836;19.138;2023-06-26T09:05:29;5.23;;;2.80;;
74974;SDS011;68459;50.836;19.138;2023-06-26T09:08:34;7.28;;;3.92;;
74974;SDS011;68459;50.836;19.138;2023-06-26T09:11:39;6.63;;;3.30;;
74974;SDS011;68459;50.836;19.138;2023-06-26T09:14:43;5.32;;;3.22;;
74974;SDS011;68459;50.836;19.138;2023-06-26T09:17:48;5.55;;;3.00;;
74974;SDS011;68459;50.836;19.138;2023-06-26T09:20:52;5.90;;;3.27;;
74974;SDS011;68459;50.836;19.138;2023-06-26T09:23:58;3.70;;;2.58;;
74974;SDS011;68459;50.836;19.138;2023-06-26T09:27:04;5.13;;;3.03;;
74974;SDS011;68459;50.836;19.138;2023-06-26T09:30:08;4.80;;;2.45;;
74974;SDS011;68459;50.836;19.138;2023-06-26T09:33:14;4.00;;;2.60;;
74974;SDS011;68459;50.836;19.138;2023-06-26T09:36:19;4.67;;;3.00;;
74974;SDS011;68459;50.836;19.138;2023-06-26T09:39:25;5.30;;;3.10;;
74974;SDS011;68459;50.836;19.138;2023-06-26T09:42:30;4.25;;;2.60;;
74974;SDS011;68459;50.836;19.138;2023-06-26T09:45:35;4.70;;;2.72;;
74974;SDS011;68459;50.836;19.138;2023-06-26T09:48:39;4.85;;;2.70;;
74974;SDS011;68459;50.836;19.138;2023-06-26T09:51:43;6.10;;;2.80;;
74974;SDS011;68459;50.836;19.138;2023-06-26T09:54:47;4.00;;;2.58;;
74974;SDS011;68459;50.836;19.138;2023-06-26T09:57:52;5.93;;;3.80;;
74974;SDS011;68459;50.836;19.138;2023-06-26T10:01:00;5.70;;;2.90;;
74974;SDS011;68459;50.836;19.138;2023-06-26T10:04:05;5.60;;;3.08;;
74974;SDS011;68459;50.836;19.138;2023-06-26T10:07:10;6.47;;;3.10;;
74974;SDS011;68459;50.836;19.138;2023-06-26T10:10:14;5.28;;;2.92;;
74974;SDS011;68459;50.836;19.138;2023-06-26T10:13:24;5.50;;;2.85;;
74974;SDS011;68459;50.836;19.138;2023-06-26T10:16:35;4.53;;;2.67;;
74974;SDS011;68459;50.836;19.138;2023-06-26T10:19:43;4.28;;;2.65;;
74974;SDS011;68459;50.836;19.138;2023-06-26T10:22:48;4.23;;;2.60;;
74974;SDS011;68459;50.836;19.138;2023-06-26T10:25:52;4.75;;;2.85;;
74974;SDS011;68459;50.836;19.138;2023-06-26T10:29:00;5.05;;;2.90;;
74974;SDS011;68459;50.836;19.138;2023-06-26T10:32:05;4.55;;;2.70;;
74974;SDS011;68459;50.836;19.138;2023-06-26T10:35:13;4.47;;;2.67;;
74974;SDS011;68459;50.836;19.138;2023-06-26T10:38:18;5.57;;;3.03;;
74974;SDS011;68459;50.836;19.138;2023-06-26T10:41:22;5.60;;;3.13;;
74974;SDS011;68459;50.836;19.138;2023-06-26T10:44:29;5.28;;;3.20;;
74974;SDS011;68459;50.836;19.138;2023-06-26T10:47:45;12.57;;;6.72;;
74974;SDS011;68459;50.836;19.138;2023-06-26T10:50:52;4.05;;;3.05;;
74974;SDS011;68459;50.836;19.138;2023-06-26T10:53:57;4.10;;;2.73;;
74974;SDS011;68459;50.836;19.138;2023-06-26T10:57:01;3.92;;;2.80;;
74974;SDS011;68459;50.836;19.138;2023-06-26T11:00:10;5.18;;;2.88;;
74974;SDS011;68459;50.836;19.138;2023-06-26T11:03:22;5.18;;;3.05;;
74974;SDS011;68459;50.836;19.138;2023-06-26T11:06:27;5.13;;;2.88;;
74974;SDS011;68459;50.836;19.138;2023-06-26T11:09:32;4.03;;;2.63;;
74974;SDS011;68459;50.836;19.138;2023-06-26T11:12:58;4.07;;;2.55;;
74974;SDS011;68459;50.836;19.138;2023-06-26T11:16:05;4.32;;;2.53;;
74974;SDS011;68459;50.836;19.138;2023-06-26T11:19:09;4.65;;;2.72;;
74974;SDS011;68459;50.836;19.138;2023-06-26T11:22:14;4.63;;;2.42;;
74974;SDS011;68459;50.836;19.138;2023-06-26T11:25:19;4.00;;;2.40;;
74974;SDS011;68459;50.836;19.138;2023-06-26T11:28:23;5.97;;;2.38;;
74974;SDS011;68459;50.836;19.138;2023-06-26T11:31:29;4.60;;;2.70;;
74974;SDS011;68459;50.836;19.138;2023-06-26T11:34:35;3.97;;;2.20;;
74974;SDS011;68459;50.836;19.138;2023-06-26T11:37:39;3.75;;;2.53;;
74974;SDS011;68459;50.836;19.138;2023-06-26T11:40:44;4.83;;;2.90;;
74974;SDS011;68459;50.836;19.138;2023-06-26T11:43:48;4.67;;;2.70;;
74974;SDS011;68459;50.836;19.138;2023-06-26T11:46:54;4.00;;;2.38;;
74974;SDS011;68459;50.836;19.138;2023-06-26T11:49:59;5.28;;;2.70;;
74974;SDS011;68459;50.836;19.138;2023-06-26T11:53:08;3.58;;;2.45;;
74974;SDS011;68459;50.836;19.138;2023-06-26T11:56:15;4.93;;;2.50;;
74974;SDS011;68459;50.836;19.138;2023-06-26T11:59:20;5.30;;;2.87;;
74974;SDS011;68459;50.836;19.138;2023-06-26T12:02:25;4.45;;;2.50;;
74974;SDS011;68459;50.836;19.138;2023-06-26T12:05:30;4.05;;;2.72;;
74974;SDS011;68459;50.836;19.138;2023-06-26T12:08:34;6.75;;;2.67;;
74974;SDS011;68459;50.836;19.138;2023-06-26T12:11:39;3.90;;;2.50;;
74974;SDS011;68459;50.836;19.138;2023-06-26T12:14:45;3.97;;;2.23;;
74974;SDS011;68459;50.836;19.138;2023-06-26T12:17:50;3.80;;;2.30;;
74974;SDS011;68459;50.836;19.138;2023-06-26T12:20:54;5.03;;;2.40;;
74974;SDS011;68459;50.836;19.138;2023-06-26T12:23:59;3.92;;;2.53;;
74974;SDS011;68459;50.836;19.138;2023-06-26T12:27:10;4.63;;;2.70;;
74974;SDS011;68459;50.836;19.138;2023-06-26T12:30:15;4.00;;;2.60;;
74974;SDS011;68459;50.836;19.138;2023-06-26T12:33:20;4.93;;;2.70;;
74974;SDS011;68459;50.836;19.138;2023-06-26T12:36:24;4.93;;;2.70;;
74974;SDS011;68459;50.836;19.138;2023-06-26T12:39:28;4.40;;;2.72;;
74974;SDS011;68459;50.836;19.138;2023-06-26T12:42:33;5.27;;;2.57;;
74974;SDS011;68459;50.836;19.138;2023-06-26T12:45:40;2.97;;;2.20;;
74974;SDS011;68459;50.836;19.138;2023-06-26T12:48:46;3.67;;;2.65;;
74974;SDS011;68459;50.836;19.138;2023-06-26T12:51:50;4.50;;;2.20;;
74974;SDS011;68459;50.836;19.138;2023-06-26T12:54:54;3.90;;;2.35;;
74974;SDS011;68459;50.836;19.138;2023-06-26T12:58:15;3.60;;;2.50;;
74974;SDS011;68459;50.836;19.138;2023-06-26T13:01:20;3.60;;;2.40;;
74974;SDS011;68459;50.836;19.138;2023-06-26T13:04:28;4.10;;;2.40;;
74974;SDS011;68459;50.836;19.138;2023-06-26T13:07:31;4.15;;;2.63;;
74974;SDS011;68459;50.836;19.138;2023-06-26T13:10:37;6.22;;;2.70;;
74974;SDS011;68459;50.836;19.138;2023-06-26T13:13:42;4.73;;;2.53;;
74974;SDS011;68459;50.836;19.138;2023-06-26T13:16:53;4.50;;;2.70;;
74974;SDS011;68459;50.836;19.138;2023-06-26T13:19:57;4.03;;;2.53;;
74974;SDS011;68459;50.836;19.138;2023-06-26T13:23:02;3.83;;;2.38;;
74974;SDS011;68459;50.836;19.138;2023-06-26T13:26:06;3.55;;;2.40;;
74974;SDS011;68459;50.836;19.138;2023-06-26T13:29:19;3.53;;;2.40;;
74974;SDS011;68459;50.836;19.138;2023-06-26T13:32:22;6.23;;;2.70;;
74974;SDS011;68459;50.836;19.138;2023-06-26T13:35:28;2.72;;;2.10;;
74974;SDS011;68459;50.836;19.138;2023-06-26T13:38:32;3.80;;;2.28;;
74974;SDS011;68459;50.836;19.138;2023-06-26T13:41:37;3.10;;;2.15;;
74974;SDS011;68459;50.836;19.138;2023-06-26T13:44:40;3.00;;;2.50;;
74974;SDS011;68459;50.836;19.138;2023-06-26T13:48:01;2.87;;;2.10;;
74974;SDS011;68459;50.836;19.138;2023-06-26T13:51:06;3.40;;;2.30;;
74974;SDS011;68459;50.836;19.138;2023-06-26T13:54:10;3.90;;;2.10;;
74974;SDS011;68459;50.836;19.138;2023-06-26T13:57:14;3.95;;;2.17;;
74974;SDS011;68459;50.836;19.138;2023-06-26T14:00:18;3.83;;;2.47;;
74974;SDS011;68459;50.836;19.138;2023-06-26T14:03:24;4.53;;;2.53;;
74974;SDS011;68459;50.836;19.138;2023-06-26T14:06:31;3.05;;;2.05;;
74974;SDS011;68459;50.836;19.138;2023-06-26T14:09:36;2.70;;;2.10;;
74974;SDS011;68459;50.836;19.138;2023-06-26T14:12:40;6.13;;;2.17;;
74974;SDS011;68459;50.836;19.138;2023-06-26T14:15:44;4.07;;;2.17;;
74974;SDS011;68459;50.836;19.138;2023-06-26T14:18:49;3.87;;;2.30;;
74974;SDS011;68459;50.836;19.138;2023-06-26T14:21:54;5.15;;;2.50;;
74974;SDS011;68459;50.836;19.138;2023-06-26T14:24:58;2.70;;;2.28;;
74974;SDS011;68459;50.836;19.138;2023-06-26T14:28:02;3.65;;;2.55;;
74974;SDS011;68459;50.836;19.138;2023-06-26T14:31:06;3.67;;;2.60;;
74974;SDS011;68459;50.836;19.138;2023-06-26T14:34:10;2.73;;;2.27;;
74974;SDS011;68459;50.836;19.138;2023-06-26T14:37:16;2.67;;;2.10;;
74974;SDS011;68459;50.836;19.138;2023-06-26T14:40:21;3.42;;;2.55;;
74974;SDS011;68459;50.836;19.138;2023-06-26T14:43:26;2.88;;;2.17;;
74974;SDS011;68459;50.836;19.138;2023-06-26T14:46:30;3.00;;;2.47;;
74974;SDS011;68459;50.836;19.138;2023-06-26T14:49:34;3.77;;;2.60;;
74974;SDS011;68459;50.836;19.138;2023-06-26T14:52:39;3.72;;;2.20;;
74974;SDS011;68459;50.836;19.138;2023-06-26T14:55:43;2.95;;;2.38;;
74974;SDS011;68459;50.836;19.138;2023-06-26T14:58:47;3.33;;;2.72;;
74974;SDS011;68459;50.836;19.138;2023-06-26T15:01:53;3.13;;;2.27;;
74974;SDS011;68459;50.836;19.138;2023-06-26T15:04:57;3.03;;;2.00;;
74974;SDS011;68459;50.836;19.138;2023-06-26T15:08:02;3.25;;;2.40;;
74974;SDS011;68459;50.836;19.138;2023-06-26T15:11:06;4.57;;;2.53;;
74974;SDS011;68459;50.836;19.138;2023-06-26T15:14:10;4.18;;;2.50;;
74974;SDS011;68459;50.836;19.138;2023-06-26T15:17:14;4.20;;;2.80;;
74974;SDS011;68459;50.836;19.138;2023-06-26T15:20:18;3.67;;;2.70;;
74974;SDS011;68459;50.836;19.138;2023-06-26T15:23:23;3.45;;;2.60;;
74974;SDS011;68459;50.836;19.138;2023-06-26T15:26:30;3.10;;;2.58;;
74974;SDS011;68459;50.836;19.138;2023-06-26T15:29:34;4.13;;;2.75;;
74974;SDS011;68459;50.836;19.138;2023-06-26T15:32:38;3.33;;;2.63;;
74974;SDS011;68459;50.836;19.138;2023-06-26T15:35:42;3.57;;;2.60;;
74974;SDS011;68459;50.836;19.138;2023-06-26T15:38:47;3.25;;;2.42;;
74974;SDS011;68459;50.836;19.138;2023-06-26T15:41:51;3.58;;;2.67;;
74974;SDS011;68459;50.836;19.138;2023-06-26T15:44:56;3.70;;;2.65;;
74974;SDS011;68459;50.836;19.138;2023-06-26T15:48:00;6.80;;;6.10;;
74974;SDS011;68459;50.836;19.138;2023-06-26T15:51:04;3.40;;;2.80;;
74974;SDS011;68459;50.836;19.138;2023-06-26T15:54:09;3.50;;;2.42;;
74974;SDS011;68459;50.836;19.138;2023-06-26T15:57:13;4.22;;;2.72;;
74974;SDS011;68459;50.836;19.138;2023-06-26T16:00:17;3.60;;;3.00;;
74974;SDS011;68459;50.836;19.138;2023-06-26T16:03:22;3.67;;;2.77;;
74974;SDS011;68459;50.836;19.138;2023-06-26T16:06:26;3.40;;;2.70;;
74974;SDS011;68459;50.836;19.138;2023-06-26T16:09:32;3.80;;;2.90;;
74974;SDS011;68459;50.836;19.138;2023-06-26T16:12:37;3.30;;;2.78;;
74974;SDS011;68459;50.836;19.138;2023-06-26T16:15:42;4.10;;;3.33;;
74974;SDS011;68459;50.836;19.138;2023-06-26T16:18:46;3.90;;;2.93;;
74974;SDS011;68459;50.836;19.138;2023-06-26T16:21:50;4.10;;;2.67;;
74974;SDS011;68459;50.836;19.138;2023-06-26T16:24:55;3.63;;;2.75;;
74974;SDS011;68459;50.836;19.138;2023-06-26T16:27:59;3.72;;;2.95;;
74974;SDS011;68459;50.836;19.138;2023-06-26T16:31:02;4.00;;;2.95;;
74974;SDS011;68459;50.836;19.138;2023-06-26T16:34:06;4.07;;;3.00;;
74974;SDS011;68459;50.836;19.138;2023-06-26T16:37:10;4.77;;;3.20;;
74974;SDS011;68459;50.836;19.138;2023-06-26T16:40:16;3.88;;;3.15;;
74974;SDS011;68459;50.836;19.138;2023-06-26T16:43:19;4.88;;;3.42;;
74974;SDS011;68459;50.836;19.138;2023-06-26T16:46:24;3.92;;;3.17;;
74974;SDS011;68459;50.836;19.138;2023-06-26T16:49:28;4.00;;;2.90;;
74974;SDS011;68459;50.836;19.138;2023-06-26T16:52:32;3.90;;;3.00;;
74974;SDS011;68459;50.836;19.138;2023-06-26T16:55:37;4.93;;;3.03;;
74974;SDS011;68459;50.836;19.138;2023-06-26T16:58:41;6.43;;;3.20;;
74974;SDS011;68459;50.836;19.138;2023-06-26T17:01:44;4.30;;;3.08;;
74974;SDS011;68459;50.836;19.138;2023-06-26T17:04:48;5.23;;;3.20;;
74974;SDS011;68459;50.836;19.138;2023-06-26T17:07:52;4.93;;;3.30;;
74974;SDS011;68459;50.836;19.138;2023-06-26T17:10:57;5.82;;;3.20;;
74974;SDS011;68459;50.836;19.138;2023-06-26T17:14:01;5.03;;;3.45;;
74974;SDS011;68459;50.836;19.138;2023-06-26T17:17:05;4.25;;;3.10;;
74974;SDS011;68459;50.836;19.138;2023-06-26T17:20:09;4.97;;;3.20;;
74974;SDS011;68459;50.836;19.138;2023-06-26T17:23:14;6.07;;;3.00;;
74974;SDS011;68459;50.836;19.138;2023-06-26T17:26:19;4.50;;;3.08;;
74974;SDS011;68459;50.836;19.138;2023-06-26T17:29:23;5.18;;;2.95;;
74974;SDS011;68459;50.836;19.138;2023-06-26T17:32:27;4.22;;;2.88;;
74974;SDS011;68459;50.836;19.138;2023-06-26T17:35:31;6.73;;;2.87;;
74974;SDS011;68459;50.836;19.138;2023-06-26T17:38:36;5.47;;;2.90;;
74974;SDS011;68459;50.836;19.138;2023-06-26T17:41:42;5.60;;;3.10;;
74974;SDS011;68459;50.836;19.138;2023-06-26T17:44:46;5.55;;;3.25;;
74974;SDS011;68459;50.836;19.138;2023-06-26T17:47:50;4.10;;;2.92;;
74974;SDS011;68459;50.836;19.138;2023-06-26T17:50:54;5.77;;;3.10;;
74974;SDS011;68459;50.836;19.138;2023-06-26T17:53:58;5.93;;;2.97;;
74974;SDS011;68459;50.836;19.138;2023-06-26T17:57:03;8.45;;;3.20;;
74974;SDS011;68459;50.836;19.138;2023-06-26T18:00:09;5.50;;;3.33;;
74974;SDS011;68459;50.836;19.138;2023-06-26T18:03:14;5.93;;;3.40;;
74974;SDS011;68459;50.836;19.138;2023-06-26T18:06:18;5.43;;;2.93;;
74974;SDS011;68459;50.836;19.138;2023-06-26T18:09:24;5.27;;;3.37;;
74974;SDS011;68459;50.836;19.138;2023-06-26T18:12:30;5.85;;;3.28;;
74974;SDS011;68459;50.836;19.138;2023-06-26T18:15:34;5.10;;;3.35;;